createdAt,value
2023-02-18T00:00:31.079Z,87
2023-02-18T00:01:37.930Z,87
2023-02-18T00:02:44.842Z,86
2023-02-18T00:03:51.679Z,87
2023-02-18T00:04:58.538Z,86
2023-02-18T00:06:07.327Z,87
2023-02-18T00:07:18.008Z,87
2023-02-18T00:08:24.931Z,87
2023-02-18T00:09:31.712Z,87
2023-02-18T00:10:38.739Z,87
2023-02-18T00:11:46.415Z,86
2023-02-18T00:12:53.223Z,87
2023-02-18T00:14:00.117Z,87
2023-02-18T00:15:07.188Z,87
2023-02-18T00:16:14.160Z,86
2023-02-18T00:17:20.914Z,86
2023-02-18T00:18:27.710Z,87
2023-02-18T00:19:34.631Z,87
2023-02-18T00:20:41.658Z,87
2023-02-18T00:21:48.564Z,87
2023-02-18T00:22:55.401Z,86
2023-02-18T00:24:02.584Z,86
2023-02-18T00:25:09.522Z,86
2023-02-18T00:26:18.258Z,86
2023-02-18T00:27:25.814Z,86
2023-02-18T00:28:32.714Z,86
2023-02-18T00:29:39.570Z,86
2023-02-18T00:30:46.456Z,86
2023-02-18T00:31:53.390Z,86
2023-02-18T00:33:00.946Z,86
2023-02-18T00:34:07.845Z,86
2023-02-18T00:35:14.670Z,86
2023-02-18T00:36:21.523Z,86
2023-02-18T00:37:28.466Z,86
2023-02-18T00:38:35.399Z,86
2023-02-18T00:39:43.218Z,85
2023-02-18T00:40:50.105Z,86
2023-02-18T00:41:57.742Z,86
2023-02-18T00:43:04.762Z,86
2023-02-18T00:44:11.675Z,86
2023-02-18T00:45:18.639Z,86
2023-02-18T00:46:26.018Z,85
2023-02-18T00:47:32.911Z,85
2023-02-18T00:48:39.946Z,85
2023-02-18T00:49:47.623Z,85
2023-02-18T00:50:55.262Z,86
2023-02-18T00:52:02.211Z,85
2023-02-18T00:53:09.195Z,86
2023-02-18T00:54:16.133Z,85
2023-02-18T00:55:23.393Z,85
2023-02-18T00:56:31.807Z,86
2023-02-18T00:57:38.609Z,86
2023-02-18T00:58:45.590Z,83
2023-02-18T00:59:53.379Z,81
2023-02-18T01:01:00.253Z,79
2023-02-18T01:02:07.095Z,78
2023-02-18T01:03:14.832Z,79
2023-02-18T01:04:21.766Z,79
2023-02-18T01:05:28.577Z,79
2023-02-18T01:06:35.499Z,80
2023-02-18T01:07:44.262Z,80
2023-02-18T01:08:51.067Z,80
2023-02-18T01:09:57.941Z,80
2023-02-18T01:11:04.818Z,80
2023-02-18T01:12:12.663Z,81
2023-02-18T01:13:19.559Z,80
2023-02-18T01:14:26.505Z,80
2023-02-18T01:15:34.086Z,80
2023-02-18T01:16:41.005Z,81
2023-02-18T01:17:47.771Z,81
2023-02-18T01:18:54.656Z,81
2023-02-18T01:20:01.465Z,80
2023-02-18T01:21:09.396Z,81
2023-02-18T01:22:16.240Z,81
2023-02-18T01:23:23.165Z,80
2023-02-18T01:24:30.011Z,80
2023-02-18T01:25:37.876Z,81
2023-02-18T01:26:44.859Z,82
2023-02-18T01:27:53.248Z,82
2023-02-18T01:29:00.164Z,83
2023-02-18T01:30:07.949Z,84
2023-02-18T01:31:15.180Z,85
2023-02-18T01:32:22.710Z,86
2023-02-18T01:33:29.473Z,86
2023-02-18T01:34:37.136Z,86
2023-02-18T01:35:44.123Z,86
2023-02-18T01:36:51.047Z,87
2023-02-18T01:37:58.772Z,86
2023-02-18T01:39:06.422Z,86
2023-02-18T01:40:13.229Z,86
2023-02-18T01:41:20.256Z,86
2023-02-18T01:42:27.120Z,86
2023-02-18T01:43:36.842Z,86
2023-02-18T01:44:43.799Z,86
2023-02-18T01:45:50.666Z,86
2023-02-18T01:47:02.567Z,87
2023-02-18T01:48:09.467Z,86
2023-02-18T01:49:19.961Z,86
2023-02-18T01:50:31.883Z,87
2023-02-18T01:51:38.738Z,86
2023-02-18T01:52:47.639Z,86
2023-02-18T01:53:54.518Z,87
2023-02-18T01:55:07.317Z,86
2023-02-18T01:56:14.181Z,86
2023-02-18T01:57:25.689Z,86
2023-02-18T01:58:36.122Z,86
2023-02-18T01:59:43.031Z,86
2023-02-18T02:00:51.628Z,85
2023-02-18T02:01:59.318Z,85
2023-02-18T02:03:06.101Z,85
2023-02-18T02:04:12.926Z,85
2023-02-18T02:05:20.126Z,85
2023-02-18T02:06:27.010Z,85
2023-02-18T02:07:34.805Z,85
2023-02-18T02:08:41.764Z,86
2023-02-18T02:09:48.684Z,85
2023-02-18T02:10:55.601Z,85
2023-02-18T02:12:07.480Z,85
2023-02-18T02:13:20.492Z,85
2023-02-18T02:14:37.408Z,86
2023-02-18T02:15:54.396Z,85
2023-02-18T02:17:06.249Z,85
2023-02-18T02:18:21.004Z,85
2023-02-18T02:19:38.913Z,85
2023-02-18T02:20:57.506Z,86
2023-02-18T02:22:09.801Z,86
2023-02-18T02:23:27.596Z,85
2023-02-18T02:24:44.545Z,85
2023-02-18T02:25:56.452Z,85
2023-02-18T02:27:11.001Z,85
2023-02-18T02:28:17.872Z,85
2023-02-18T02:29:34.816Z,85
2023-02-18T02:30:42.594Z,85
2023-02-18T02:32:00.313Z,85
2023-02-18T02:33:15.341Z,85
2023-02-18T02:34:32.276Z,85
2023-02-18T02:35:49.340Z,85
2023-02-18T02:36:56.956Z,85
2023-02-18T02:38:09.040Z,86
2023-02-18T02:39:15.926Z,85
2023-02-18T02:40:22.818Z,85
2023-02-18T02:41:39.744Z,85
2023-02-18T02:42:46.547Z,85
2023-02-18T02:43:56.248Z,85
2023-02-18T02:45:08.151Z,85
2023-02-18T02:46:25.215Z,85
2023-02-18T02:47:34.710Z,85
2023-02-18T02:48:51.668Z,84
2023-02-18T02:50:08.746Z,85
2023-02-18T02:51:20.699Z,84
2023-02-18T02:52:32.605Z,84
2023-02-18T02:53:45.339Z,84
2023-02-18T02:54:52.271Z,83
2023-02-18T02:55:59.816Z,83
2023-02-18T02:57:06.718Z,83
2023-02-18T02:58:21.588Z,83
2023-02-18T02:59:29.413Z,83
2023-02-18T03:00:36.269Z,82
2023-02-18T03:01:50.972Z,82
2023-02-18T03:03:02.922Z,82
2023-02-18T03:04:15.532Z,81
2023-02-18T03:05:22.373Z,81
2023-02-18T03:06:31.877Z,81
2023-02-18T03:07:43.798Z,81
2023-02-18T03:08:58.756Z,80
2023-02-18T03:10:13.670Z,79
2023-02-18T03:11:20.586Z,78
2023-02-18T03:12:27.451Z,78
2023-02-18T03:13:42.410Z,77
2023-02-18T03:14:58.064Z,77
2023-02-18T03:16:15.067Z,76
2023-02-18T03:17:26.872Z,76
2023-02-18T03:18:33.782Z,75
2023-02-18T03:19:40.588Z,74
2023-02-18T03:20:52.446Z,74
2023-02-18T03:22:07.045Z,74
2023-02-18T03:23:17.220Z,74
2023-02-18T03:24:24.316Z,74
2023-02-18T03:25:33.777Z,74
2023-02-18T03:26:40.672Z,74
2023-02-18T03:27:48.394Z,73
2023-02-18T03:29:01.117Z,73
2023-02-18T03:30:09.640Z,72
2023-02-18T03:31:16.702Z,71
2023-02-18T03:32:23.422Z,70
2023-02-18T03:33:31.378Z,68
2023-02-18T03:34:44.263Z,67
2023-02-18T03:35:51.100Z,66
2023-02-18T03:36:58.032Z,67
2023-02-18T03:38:04.923Z,67
2023-02-18T03:39:16.919Z,67
2023-02-18T03:40:24.699Z,67
2023-02-18T03:41:35.384Z,67
2023-02-18T03:42:42.235Z,68
2023-02-18T03:43:49.999Z,68
2023-02-18T03:44:56.888Z,68
2023-02-18T03:46:03.845Z,68
2023-02-18T03:47:10.675Z,68
2023-02-18T03:48:18.543Z,67
2023-02-18T03:49:25.323Z,67
2023-02-18T03:50:32.951Z,67
2023-02-18T03:51:39.794Z,67
2023-02-18T03:52:46.668Z,67
2023-02-18T03:53:53.742Z,67
2023-02-18T03:55:02.833Z,67
2023-02-18T03:56:10.069Z,67
2023-02-18T03:57:16.741Z,67
2023-02-18T03:58:23.621Z,67
2023-02-18T03:59:30.375Z,67
2023-02-18T04:00:37.378Z,67
2023-02-18T04:01:44.541Z,67
2023-02-18T04:02:51.370Z,67
2023-02-18T04:03:58.387Z,68
2023-02-18T04:05:06.126Z,68
2023-02-18T04:06:13.840Z,67
2023-02-18T04:07:21.841Z,68
2023-02-18T04:08:28.835Z,68
2023-02-18T04:09:35.732Z,68
2023-02-18T04:10:42.774Z,68
2023-02-18T04:11:49.601Z,67
2023-02-18T04:12:56.460Z,66
2023-02-18T04:14:03.384Z,66
2023-02-18T04:15:10.291Z,65
2023-02-18T04:16:17.212Z,66
2023-02-18T04:17:25.619Z,66
2023-02-18T04:18:32.450Z,66
2023-02-18T04:19:39.363Z,66
2023-02-18T04:20:46.333Z,66
2023-02-18T04:21:54.839Z,66
2023-02-18T04:23:03.356Z,66
2023-02-18T04:24:10.537Z,66
2023-02-18T04:25:17.441Z,66
2023-02-18T04:26:25.259Z,66
2023-02-18T04:27:32.123Z,66
2023-02-18T04:28:39.135Z,66
2023-02-18T04:29:46.770Z,66
2023-02-18T04:30:54.017Z,66
2023-02-18T04:32:00.972Z,66
2023-02-18T04:33:08.966Z,66
2023-02-18T04:34:16.909Z,66
2023-02-18T04:35:26.676Z,66
2023-02-18T04:36:33.623Z,66
2023-02-18T04:37:40.545Z,66
2023-02-18T04:38:47.344Z,66
2023-02-18T04:39:54.255Z,66
2023-02-18T04:41:03.313Z,66
2023-02-18T04:42:09.961Z,66
2023-02-18T04:43:17.042Z,66
2023-02-18T04:44:23.868Z,66
2023-02-18T04:45:30.912Z,66
2023-02-18T04:46:38.018Z,67
2023-02-18T04:47:45.757Z,67
2023-02-18T04:48:52.592Z,66
2023-02-18T04:50:00.218Z,66
2023-02-18T04:51:08.052Z,66
2023-02-18T04:52:15.786Z,67
2023-02-18T04:53:23.793Z,66
2023-02-18T04:54:30.644Z,66
2023-02-18T04:55:37.515Z,66
2023-02-18T04:56:44.519Z,66
2023-02-18T04:57:51.367Z,65
2023-02-18T04:58:59.170Z,65
2023-02-18T05:00:06.877Z,65
2023-02-18T05:01:14.043Z,65
2023-02-18T05:02:21.713Z,64
2023-02-18T05:03:29.434Z,64
2023-02-18T05:04:37.136Z,64
2023-02-18T05:05:44.016Z,64
2023-02-18T05:06:51.704Z,64
2023-02-18T05:07:58.571Z,64
2023-02-18T05:09:06.199Z,64
2023-02-18T05:10:13.216Z,64
2023-02-18T05:11:20.143Z,64
2023-02-18T05:12:27.032Z,64
2023-02-18T05:13:33.834Z,64
2023-02-18T05:14:40.688Z,64
2023-02-18T05:15:48.465Z,64
2023-02-18T05:16:55.298Z,64
2023-02-18T05:18:02.189Z,64
2023-02-18T05:19:09.927Z,64
2023-02-18T05:20:19.933Z,64
2023-02-18T05:21:27.649Z,64
2023-02-18T05:22:34.482Z,65
2023-02-18T05:23:41.383Z,65
2023-02-18T05:24:49.443Z,64
2023-02-18T05:25:56.354Z,64
2023-02-18T05:27:03.189Z,64
2023-02-18T05:28:10.063Z,64
2023-02-18T05:29:17.679Z,64
2023-02-18T05:30:24.691Z,64
2023-02-18T05:31:31.602Z,64
2023-02-18T05:32:40.114Z,64
2023-02-18T05:33:46.995Z,64
2023-02-18T05:34:55.417Z,64
2023-02-18T05:36:02.475Z,64
2023-02-18T05:37:09.464Z,64
2023-02-18T05:38:17.941Z,64
2023-02-18T05:39:24.747Z,64
2023-02-18T05:40:31.820Z,64
2023-02-18T05:41:38.811Z,64
2023-02-18T05:42:45.581Z,64
2023-02-18T05:43:52.483Z,64
2023-02-18T05:45:06.037Z,64
2023-02-18T05:46:13.016Z,64
2023-02-18T05:47:20.960Z,64
2023-02-18T05:48:27.750Z,63
2023-02-18T05:49:34.594Z,63
2023-02-18T05:50:41.490Z,61
2023-02-18T05:51:48.319Z,61
2023-02-18T05:52:55.226Z,61
2023-02-18T05:54:02.029Z,61
2023-02-18T05:55:09.906Z,62
2023-02-18T05:56:16.841Z,60
2023-02-18T05:57:23.625Z,60
2023-02-18T05:58:30.473Z,60
2023-02-18T05:59:37.278Z,60
2023-02-18T06:00:44.309Z,60
2023-02-18T06:01:51.942Z,60
2023-02-18T06:02:58.976Z,61
2023-02-18T06:04:05.817Z,61
2023-02-18T06:05:12.717Z,62
2023-02-18T06:06:20.640Z,62
2023-02-18T06:07:27.895Z,62
2023-02-18T06:08:34.894Z,62
2023-02-18T06:09:42.786Z,62
2023-02-18T06:10:49.801Z,61
2023-02-18T06:11:56.717Z,61
2023-02-18T06:13:03.733Z,61
2023-02-18T06:14:11.401Z,61
2023-02-18T06:15:19.058Z,62
2023-02-18T06:16:26.070Z,61
2023-02-18T06:17:34.950Z,61
2023-02-18T06:18:42.680Z,62
2023-02-18T06:19:52.167Z,62
2023-02-18T06:20:59.775Z,61
2023-02-18T06:22:06.760Z,62
2023-02-18T06:23:13.571Z,61
2023-02-18T06:24:21.226Z,62
2023-02-18T06:25:28.872Z,62
2023-02-18T06:26:35.604Z,62
2023-02-18T06:27:42.547Z,62
2023-02-18T06:28:49.381Z,61
2023-02-18T06:29:57.330Z,61
2023-02-18T06:31:05.554Z,61
2023-02-18T06:32:12.471Z,61
2023-02-18T06:33:19.542Z,61
2023-02-18T06:34:26.434Z,61
2023-02-18T06:35:33.446Z,61
2023-02-18T06:36:40.410Z,61
2023-02-18T06:37:48.154Z,61
2023-02-18T06:38:55.081Z,61
2023-02-18T06:40:02.009Z,61
2023-02-18T06:41:09.188Z,61
2023-02-18T06:42:16.870Z,61
2023-02-18T06:43:25.090Z,61
2023-02-18T06:44:31.978Z,61
2023-02-18T06:45:40.540Z,60
2023-02-18T06:46:49.322Z,60
2023-02-18T06:47:58.101Z,61
2023-02-18T06:49:04.988Z,60
2023-02-18T06:50:13.930Z,60
2023-02-18T06:51:20.823Z,60
2023-02-18T06:52:28.511Z,60
2023-02-18T06:53:35.366Z,61
2023-02-18T06:54:43.903Z,60
2023-02-18T06:55:51.611Z,61
2023-02-18T06:56:58.566Z,61
2023-02-18T06:58:05.450Z,61
2023-02-18T06:59:12.342Z,61
2023-02-18T07:00:19.950Z,61
2023-02-18T07:01:28.305Z,61
2023-02-18T07:02:35.158Z,61
2023-02-18T07:03:42.080Z,61
2023-02-18T07:04:51.735Z,61
2023-02-18T07:05:58.718Z,61
2023-02-18T07:07:06.186Z,61
2023-02-18T07:08:14.455Z,61
2023-02-18T07:11:49.481Z,61
2023-02-18T07:12:56.630Z,61
2023-02-18T07:15:55.274Z,62
2023-02-18T07:17:03.446Z,61
2023-02-18T07:18:11.441Z,61
2023-02-18T07:19:18.514Z,61
2023-02-18T07:20:51.227Z,60
2023-02-18T07:23:21.127Z,60
2023-02-18T07:25:58.974Z,60
2023-02-18T07:30:22.000Z,61
2023-02-18T07:31:29.341Z,60
2023-02-18T07:32:36.567Z,61
2023-02-18T07:33:46.651Z,61
2023-02-18T07:35:52.134Z,61
2023-02-18T07:36:59.943Z,61
2023-02-18T07:38:11.453Z,61
2023-02-18T07:39:18.409Z,61
2023-02-18T07:40:26.936Z,61
2023-02-18T07:41:37.831Z,61
2023-02-18T07:42:46.432Z,61
2023-02-18T07:43:54.490Z,61
2023-02-18T07:45:01.688Z,61
2023-02-18T07:46:12.031Z,62
2023-02-18T07:47:19.003Z,62
2023-02-18T07:48:27.047Z,61
2023-02-18T07:49:34.052Z,62
2023-02-18T07:50:41.802Z,62
2023-02-18T07:51:49.289Z,62
2023-02-18T07:52:58.627Z,62
2023-02-18T07:54:05.733Z,62
2023-02-18T07:55:13.838Z,62
2023-02-18T07:56:36.317Z,61
2023-02-18T07:57:44.594Z,61
2023-02-18T07:58:59.344Z,61
2023-02-18T08:00:09.869Z,61
2023-02-18T08:01:19.843Z,61
2023-02-18T08:02:28.244Z,62
2023-02-18T08:03:37.983Z,62
2023-02-18T08:04:45.173Z,62
2023-02-18T08:05:56.460Z,62
2023-02-18T08:07:03.677Z,61
2023-02-18T08:08:14.133Z,61
2023-02-18T08:09:21.974Z,60
2023-02-18T08:10:29.048Z,60
2023-02-18T08:11:48.371Z,60
2023-02-18T08:12:59.853Z,60
2023-02-18T08:14:07.916Z,60
2023-02-18T08:15:15.819Z,60
2023-02-18T08:16:25.724Z,60
2023-02-18T08:17:33.242Z,59
2023-02-18T08:18:40.524Z,59
2023-02-18T08:19:49.298Z,59
2023-02-18T08:20:56.338Z,59
2023-02-18T08:22:03.579Z,59
2023-02-18T08:23:11.319Z,59
2023-02-18T08:24:18.551Z,60
2023-02-18T08:25:31.235Z,59
2023-02-18T08:26:54.426Z,60
2023-02-18T08:27:50.276Z,59
2023-02-18T08:28:58.088Z,59
2023-02-18T08:30:08.062Z,59
2023-02-18T08:31:17.334Z,60
2023-02-18T08:32:30.425Z,59
2023-02-18T08:33:38.957Z,59
2023-02-18T08:34:46.805Z,59
2023-02-18T08:35:55.110Z,59
2023-02-18T08:37:02.022Z,59
2023-02-18T08:38:11.465Z,59
2023-02-18T08:39:29.644Z,59
2023-02-18T08:40:39.490Z,59
2023-02-18T08:41:49.135Z,59
2023-02-18T08:42:57.854Z,59
2023-02-18T08:44:06.544Z,59
2023-02-18T08:45:14.609Z,59
2023-02-18T08:46:25.370Z,59
2023-02-18T08:48:13.580Z,59
2023-02-18T08:48:42.839Z,59
2023-02-18T08:49:49.912Z,59
2023-02-18T08:50:59.928Z,59
2023-02-18T08:52:15.785Z,59
2023-02-18T08:53:22.984Z,59
2023-02-18T08:54:30.266Z,59
2023-02-18T08:55:38.996Z,59
2023-02-18T08:56:46.897Z,59
2023-02-18T08:57:55.033Z,59
2023-02-18T08:59:02.171Z,59
2023-02-18T09:00:10.409Z,59
2023-02-18T09:01:18.133Z,59
2023-02-18T09:02:25.854Z,59
2023-02-18T09:03:33.559Z,59
2023-02-18T09:04:41.752Z,59
2023-02-18T09:05:56.560Z,59
2023-02-18T09:07:07.941Z,59
2023-02-18T09:08:15.274Z,59
2023-02-18T09:09:22.544Z,59
2023-02-18T09:10:29.701Z,59
2023-02-18T09:11:37.240Z,59
2023-02-18T09:12:47.173Z,59
2023-02-18T09:13:54.624Z,59
2023-02-18T09:15:04.674Z,60
2023-02-18T09:16:14.873Z,59
2023-02-18T09:17:23.570Z,60
2023-02-18T09:18:31.361Z,59
2023-02-18T09:19:42.045Z,59
2023-02-18T09:20:49.214Z,60
2023-02-18T09:21:58.484Z,60
2023-02-18T09:23:04.258Z,59
2023-02-18T09:24:12.252Z,59
2023-02-18T09:25:21.225Z,59
2023-02-18T09:26:31.177Z,58
2023-02-18T09:27:39.142Z,58
2023-02-18T09:28:46.370Z,59
2023-02-18T09:29:53.486Z,59
2023-02-18T09:31:01.849Z,58
2023-02-18T09:32:28.974Z,58
2023-02-18T09:33:26.007Z,58
2023-02-18T09:34:33.354Z,58
2023-02-18T09:35:40.488Z,57
2023-02-18T09:36:48.480Z,56
2023-02-18T09:37:58.381Z,56
2023-02-18T09:39:06.658Z,56
2023-02-18T09:40:16.409Z,56
2023-02-18T09:41:29.889Z,56
2023-02-18T09:42:45.077Z,55
2023-02-18T09:43:55.727Z,55
2023-02-18T09:45:03.577Z,55
2023-02-18T09:46:10.859Z,55
2023-02-18T09:47:32.577Z,55
2023-02-18T09:48:40.492Z,56
2023-02-18T09:49:50.198Z,56
2023-02-18T09:51:02.576Z,55
2023-02-18T09:52:49.302Z,55
2023-02-18T09:53:58.673Z,54
2023-02-18T09:55:06.782Z,55
2023-02-18T09:56:19.162Z,55
2023-02-18T09:57:27.479Z,54
2023-02-18T09:58:40.583Z,55
2023-02-18T10:00:00.850Z,54
2023-02-18T10:01:09.654Z,54
2023-02-18T10:02:30.547Z,55
2023-02-18T10:03:40.781Z,55
2023-02-18T10:04:50.840Z,55
2023-02-18T10:05:58.671Z,55
2023-02-18T10:07:13.781Z,55
2023-02-18T10:08:38.111Z,55
2023-02-18T10:09:51.373Z,56
2023-02-18T10:11:01.962Z,56
2023-02-18T10:12:12.403Z,56
2023-02-18T10:13:20.795Z,57
2023-02-18T10:14:31.622Z,57
2023-02-18T10:15:39.318Z,57
2023-02-18T10:16:48.888Z,57
2023-02-18T10:18:07.636Z,57
2023-02-18T10:19:20.494Z,58
2023-02-18T10:20:28.371Z,59
2023-02-18T10:21:37.395Z,60
2023-02-18T10:22:45.284Z,62
2023-02-18T10:23:53.640Z,62
2023-02-18T10:25:06.610Z,63
2023-02-18T10:26:13.812Z,64
2023-02-18T10:27:22.472Z,63
2023-02-18T10:28:34.844Z,64
2023-02-18T10:29:41.985Z,65
2023-02-18T10:30:49.973Z,66
2023-02-18T10:32:02.315Z,66
2023-02-18T10:33:22.922Z,66
2023-02-18T10:34:33.181Z,66
2023-02-18T10:35:45.720Z,66
2023-02-18T10:37:00.040Z,66
2023-02-18T10:38:15.575Z,67
2023-02-18T10:39:30.417Z,68
2023-02-18T10:40:46.081Z,69
2023-02-18T10:42:05.772Z,69
2023-02-18T10:43:21.586Z,70
2023-02-18T10:44:37.778Z,71
2023-02-18T10:45:54.880Z,71
2023-02-18T10:47:11.533Z,72
2023-02-18T10:48:28.027Z,73
2023-02-18T10:49:35.372Z,74
2023-02-18T10:50:53.540Z,74
2023-02-18T10:52:01.123Z,74
2023-02-18T10:53:08.196Z,74
2023-02-18T10:54:20.365Z,75
2023-02-18T10:55:28.584Z,74
2023-02-18T10:56:39.741Z,74
2023-02-18T10:57:51.865Z,76
2023-02-18T10:59:11.827Z,76
2023-02-18T11:00:25.566Z,76
2023-02-18T11:01:35.746Z,76
2023-02-18T11:02:45.614Z,76
2023-02-18T11:04:25.489Z,76
2023-02-18T11:05:41.033Z,77
2023-02-18T11:06:49.337Z,77
2023-02-18T11:07:56.867Z,77
2023-02-18T11:09:05.201Z,78
2023-02-18T11:10:19.121Z,79
2023-02-18T11:11:23.516Z,79
2023-02-18T11:12:33.357Z,79
2023-02-18T11:13:46.809Z,78
2023-02-18T11:14:59.861Z,78
2023-02-18T11:16:21.495Z,79
2023-02-18T11:17:30.525Z,79
2023-02-18T11:18:39.146Z,78
2023-02-18T11:19:47.985Z,78
2023-02-18T11:21:03.354Z,79
2023-02-18T11:22:11.157Z,79
2023-02-18T11:23:30.140Z,79
2023-02-18T11:24:37.608Z,79
2023-02-18T11:25:46.271Z,79
2023-02-18T11:27:01.833Z,79
2023-02-18T11:28:13.143Z,79
2023-02-18T11:29:21.197Z,79
2023-02-18T11:30:33.680Z,79
2023-02-18T11:31:46.333Z,79
2023-02-18T11:32:57.372Z,79
2023-02-18T11:34:13.609Z,80
2023-02-18T11:35:22.108Z,80
2023-02-18T11:36:29.738Z,80
2023-02-18T11:37:39.023Z,80
2023-02-18T11:38:50.019Z,80
2023-02-18T11:40:21.089Z,80
2023-02-18T11:41:29.913Z,79
2023-02-18T11:42:43.244Z,79
2023-02-18T11:44:01.875Z,81
2023-02-18T11:45:15.401Z,80
2023-02-18T11:46:36.283Z,81
2023-02-18T11:47:43.701Z,82
2023-02-18T11:48:55.281Z,81
2023-02-18T11:50:10.871Z,81
2023-02-18T11:51:19.489Z,81
2023-02-18T11:52:30.747Z,80
2023-02-18T11:53:43.279Z,80
2023-02-18T11:55:03.894Z,79
2023-02-18T11:56:24.234Z,79
2023-02-18T11:57:41.169Z,79
2023-02-18T11:58:54.883Z,80
2023-02-18T12:00:03.282Z,80
2023-02-18T12:03:11.461Z,80
2023-02-18T12:04:40.973Z,80
2023-02-18T12:06:10.336Z,79
2023-02-18T12:09:35.313Z,78
2023-02-18T12:14:36.465Z,80
2023-02-18T12:20:35.546Z,79
2023-02-18T12:22:58.436Z,79
2023-02-18T12:31:52.832Z,82
2023-02-18T12:36:06.597Z,82
2023-02-18T12:39:21.841Z,82
2023-02-18T12:45:55.226Z,83
2023-02-18T12:48:18.597Z,82
2023-02-18T12:59:33.226Z,83
2023-02-18T13:02:20.965Z,82
2023-02-18T13:07:53.014Z,83
2023-02-18T13:17:07.917Z,83
2023-02-18T13:21:37.713Z,84
2023-02-18T13:29:55.342Z,84
2023-02-18T13:31:40.774Z,84
2023-02-18T13:34:25.124Z,85
2023-02-18T13:36:45.941Z,86
2023-02-18T13:38:10.511Z,86
2023-02-18T13:39:28.275Z,86
2023-02-18T13:40:40.075Z,86
2023-02-18T13:42:47.366Z,87
2023-02-18T13:56:38.365Z,88
2023-02-18T13:57:55.068Z,88
2023-02-18T13:59:14.917Z,87
2023-02-18T14:00:43.111Z,88
2023-02-18T14:01:57.877Z,88
2023-02-18T14:03:23.242Z,88
2023-02-18T14:05:19.350Z,88
2023-02-18T14:06:53.169Z,89
2023-02-18T14:08:26.592Z,89
2023-02-18T14:09:44.370Z,89
2023-02-18T14:11:54.181Z,89
2023-02-18T14:13:23.866Z,89
2023-02-18T14:15:37.576Z,90
2023-02-18T14:17:02.909Z,89
2023-02-18T14:19:09.592Z,89
2023-02-18T14:20:34.103Z,89
2023-02-18T14:21:59.433Z,89
2023-02-18T14:23:48.260Z,90
2023-02-18T14:26:08.970Z,90
2023-02-18T14:30:38.126Z,90
2023-02-18T14:33:43.449Z,90
2023-02-18T14:39:01.392Z,90
2023-02-18T14:42:38.059Z,90
2023-02-18T14:46:59.712Z,90
2023-02-18T14:48:14.436Z,90
2023-02-18T14:51:58.580Z,90
2023-02-18T15:01:16.778Z,90
2023-02-18T15:04:23.384Z,91
2023-02-18T15:13:47.114Z,91
2023-02-18T15:15:35.726Z,90
2023-02-18T15:19:13.397Z,91
2023-02-18T15:28:29.084Z,91
2023-02-18T15:37:59.693Z,90
2023-02-18T15:39:56.538Z,90
2023-02-18T15:42:29.414Z,90
2023-02-18T15:50:30.305Z,90
2023-02-18T15:53:10.556Z,90
2023-02-18T15:58:10.466Z,90
2023-02-18T16:06:01.948Z,89
2023-02-18T16:08:40.840Z,89
2023-02-18T16:11:45.735Z,89
2023-02-18T16:15:20.523Z,89
2023-02-18T16:16:48.090Z,89
2023-02-18T16:17:58.059Z,89
2023-02-18T16:23:17.700Z,89
2023-02-18T16:24:25.737Z,89
2023-02-18T16:29:32.066Z,88
2023-02-18T16:33:32.352Z,88
2023-02-18T16:38:35.062Z,88
2023-02-18T16:43:15.243Z,87
2023-02-18T16:48:42.770Z,86
2023-02-18T16:57:48.409Z,87
2023-02-18T17:00:25.362Z,87
2023-02-18T17:02:10.505Z,87
2023-02-18T17:04:14.377Z,87
2023-02-18T17:07:33.323Z,87
2023-02-18T17:09:29.731Z,87
2023-02-18T17:12:25.415Z,86
2023-02-18T17:14:13.167Z,86
2023-02-18T17:18:32.019Z,86
2023-02-18T17:21:13.793Z,86
2023-02-18T17:23:36.089Z,86
2023-02-18T17:25:48.564Z,86
2023-02-18T17:30:53.636Z,86
2023-02-18T17:35:03.028Z,86
2023-02-18T17:37:33.040Z,85
2023-02-18T17:46:02.069Z,85
2023-02-18T17:49:11.854Z,85
2023-02-18T17:51:09.206Z,85
2023-02-18T17:57:28.721Z,84
2023-02-18T18:00:45.375Z,84
2023-02-18T18:06:17.240Z,82
2023-02-18T18:13:28.091Z,80
2023-02-18T18:14:44.012Z,79
2023-02-18T18:17:13.552Z,79
2023-02-18T18:18:57.044Z,78
2023-02-18T18:20:16.687Z,78
2023-02-18T18:21:28.442Z,78
2023-02-18T18:22:57.043Z,77
2023-02-18T18:24:04.383Z,77
2023-02-18T18:25:13.093Z,77
2023-02-18T18:27:10.252Z,77
2023-02-18T18:28:20.069Z,77
2023-02-18T18:29:36.584Z,76
2023-02-18T18:30:54.370Z,76
2023-02-18T18:32:04.776Z,76
2023-02-18T18:33:12.780Z,76
2023-02-18T18:35:56.292Z,75
2023-02-18T18:37:51.751Z,75
2023-02-18T18:40:03.641Z,75
2023-02-18T18:41:11.588Z,76
2023-02-18T18:43:03.141Z,76
2023-02-18T18:44:11.009Z,76
2023-02-18T18:47:39.290Z,75
2023-02-18T18:53:20.915Z,75
2023-02-18T18:56:06.450Z,74
2023-02-18T18:59:41.511Z,74
2023-02-18T19:00:58.119Z,74
2023-02-18T19:02:22.147Z,74
2023-02-18T19:05:21.611Z,74
2023-02-18T19:06:35.028Z,74
2023-02-18T19:08:11.643Z,74
2023-02-18T19:09:19.688Z,74
2023-02-18T19:10:31.134Z,73
2023-02-18T19:12:13.267Z,74
2023-02-18T19:14:39.386Z,74
2023-02-18T19:18:10.087Z,73
2023-02-18T19:28:18.448Z,73
2023-02-18T19:34:04.329Z,72
2023-02-18T19:45:07.672Z,72
2023-02-18T19:47:07.879Z,71
2023-02-18T19:50:52.901Z,71
2023-02-18T19:52:53.510Z,71
2023-02-18T20:02:41.858Z,71
2023-02-18T20:04:19.906Z,71
2023-02-18T20:19:49.597Z,70
2023-02-18T20:24:55.627Z,70
2023-02-18T20:32:46.116Z,70
2023-02-18T20:39:59.347Z,70
2023-02-18T20:42:11.287Z,70
2023-02-18T20:44:41.776Z,70
2023-02-18T20:47:10.834Z,70
2023-02-18T20:50:57.404Z,70
2023-02-18T20:53:03.912Z,70
2023-02-18T20:55:49.681Z,70
2023-02-18T20:56:57.468Z,70
2023-02-18T20:58:05.956Z,70
2023-02-18T20:59:55.960Z,70
2023-02-18T21:02:41.839Z,70
2023-02-18T21:03:53.715Z,70
2023-02-18T21:05:05.935Z,71
2023-02-18T21:06:16.484Z,70
2023-02-18T21:07:53.141Z,71
2023-02-18T21:09:38.900Z,71
2023-02-18T21:11:09.322Z,71
2023-02-18T21:14:49.574Z,71
2023-02-18T21:15:57.232Z,70
2023-02-18T21:17:33.720Z,71
2023-02-18T21:18:41.588Z,71
2023-02-18T21:21:16.377Z,71
2023-02-18T21:26:09.729Z,71
2023-02-18T21:27:38.370Z,71
2023-02-18T21:30:25.259Z,71
2023-02-18T21:34:04.330Z,72
2023-02-18T21:38:23.448Z,72
2023-02-18T21:40:19.455Z,72
2023-02-18T21:43:04.171Z,72
2023-02-18T21:46:05.605Z,72
2023-02-18T21:47:22.338Z,72
2023-02-18T21:50:51.215Z,72
2023-02-18T21:53:10.831Z,72
2023-02-18T21:55:31.119Z,73
2023-02-18T22:05:43.198Z,75
2023-02-18T22:14:35.665Z,75
2023-02-18T22:16:13.048Z,75
2023-02-18T22:20:33.709Z,75
2023-02-18T22:22:13.087Z,75
2023-02-18T22:23:51.265Z,75
2023-02-18T22:28:18.165Z,75
2023-02-18T22:32:40.914Z,78
2023-02-18T22:35:17.961Z,81
2023-02-18T22:36:28.820Z,82
2023-02-18T22:37:41.332Z,83
2023-02-18T22:42:49.984Z,85
2023-02-18T22:44:01.768Z,85
2023-02-18T22:49:12.073Z,86
2023-02-18T22:50:24.569Z,86
2023-02-18T22:52:02.904Z,86
2023-02-18T22:55:30.207Z,86
2023-02-18T23:00:40.386Z,87
2023-02-18T23:05:26.586Z,87
2023-02-18T23:08:44.508Z,87
2023-02-18T23:11:12.752Z,87
2023-02-18T23:15:43.894Z,88
2023-02-18T23:20:14.599Z,88
2023-02-18T23:25:43.986Z,87
2023-02-18T23:29:56.676Z,88
2023-02-18T23:34:41.936Z,87
2023-02-18T23:35:49.069Z,87
2023-02-18T23:38:52.463Z,87
2023-02-18T23:42:08.231Z,88
2023-02-18T23:44:55.264Z,87
2023-02-18T23:46:26.005Z,87
2023-02-18T23:50:12.473Z,87
2023-02-18T23:52:02.456Z,86
2023-02-18T23:54:43.281Z,87
2023-02-18T23:59:18.432Z,87
